Latest Weather Observations for Kingfish B

IDV60801

Issued at 5:31 am EST Wednesday 8 July 2015 (issued every 30 minutes, with the page automatically refreshed every 10 minutes)

About weather observations | Map of weather stations | Latest weather observations for VIC | Other Formats
Station Details ID: 400139 Name: KINGFISH B (PLATFORM) Lat: -38.60 Lon: 148.19 Height: 31.4 m
Data from the previous 72 hours. | See also: Recent months for locations in Victoria
Date/Time
EST
Temp
°C
App
Temp
°C
Dew
Point
Rel
Hum
%
Delta-T
°C
Wind Press
QNH
hPa
Press
MSL
hPa
Rain
since 9 am
mm
Dir
 
Spd
km/h
Gust
km/h
Spd
kts
Gust
kts
08/04:20am 11.5 10.4 5.1 65 2.9 CALM 0 0 0 0 1026.7 - -
08/04:10am 11.5 10.4 5.1 65 2.9 CALM 0 0 0 0 1026.7 - -
08/04:00am 11.4 10.3 5.2 65 2.8 CALM 0 2 0 1 1026.7 - -
08/03:50am 11.4 10.3 5.3 66 2.8 CALM 0 0 0 0 1026.7 - -
08/03:40am 11.3 10.3 5.4 67 2.7 CALM 0 2 0 1 1026.6 - -
08/03:30am 11.3 10.3 5.7 68 2.6 CALM 0 2 0 1 1026.6 - -
08/03:20am 11.3 10.4 5.9 69 2.5 CALM 0 0 0 0 1026.6 - -
08/03:10am 11.3 10.4 5.9 69 2.5 CALM 0 2 0 1 1026.5 - -
08/03:00am 11.2 10.2 5.8 69 2.5 CALM 0 2 0 1 1026.6 - -
08/02:50am 11.1 10.1 5.8 70 2.5 CALM 0 2 0 1 1026.6 - -
08/02:40am 11.2 10.3 5.9 70 2.5 CALM 0 0 0 0 1026.6 - -
08/02:30am 11.1 10.1 5.8 70 2.5 CALM 0 2 0 1 1026.5 - -
08/02:20am 11.1 10.1 5.8 70 2.5 CALM 0 4 0 2 1026.6 - -
08/02:10am 11.1 10.1 5.7 69 2.5 CALM 0 4 0 2 1026.6 - -
08/02:00am 11.1 10.1 5.7 69 2.5 CALM 0 2 0 1 1026.6 - -
08/01:50am 11.0 10.0 5.6 69 2.5 CALM 0 2 0 1 1026.7 - -
08/01:40am 11.0 10.0 5.7 70 2.5 CALM 0 2 0 1 1026.6 - -
08/01:30am 11.0 10.0 5.6 69 2.5 CALM 0 2 0 1 1026.7 - -
08/01:20am 11.0 10.0 5.6 69 2.5 CALM 0 4 0 2 1026.8 - -
08/01:10am 10.9 9.9 5.5 69 2.5 CALM 0 2 0 1 1026.8 - -
08/01:00am 10.9 9.9 5.6 70 2.4 CALM 0 2 0 1 1026.7 - -
08/12:50am 10.9 9.9 5.6 70 2.4 CALM 0 2 0 1 1026.7 - -
08/12:40am 10.9 9.9 5.6 70 2.4 CALM 0 2 0 1 1026.6 - -
08/12:30am 11.0 10.0 5.7 70 2.5 CALM 0 2 0 1 1026.5 - -
08/12:20am 11.0 10.0 5.7 70 2.5 CALM 0 4 0 2 1026.5 - -
08/12:10am 11.0 9.7 5.8 70 2.4 E 2 7 1 4 1026.5 - -
08/12:00am 11.0 9.7 5.9 71 2.4 E 2 6 1 3 1026.4 - -
 
Date/Time
EST
Temp
°C
App
Temp
°C
Dew
Point
Rel
Hum
%
Delta-T
°C
Wind Press
QNH
hPa
Press
MSL
hPa
Rain
since 9 am
mm
Dir
 
Spd
km/h
Gust
km/h
Spd
kts
Gust
kts
07/11:50pm 11.0 9.7 6.0 71 2.3 E 2 7 1 4 1026.4 - -
07/11:40pm 11.0 9.0 6.1 72 2.3 E 6 11 3 6 1026.3 - -
07/11:30pm 11.0 8.8 6.2 72 2.2 E 7 13 4 7 1026.4 - -
07/11:20pm 11.1 8.5 6.2 72 2.3 E 9 15 5 8 1026.5 - -
07/11:10pm 11.2 8.6 6.1 71 2.4 E 9 17 5 9 1026.6 - -
07/11:00pm 11.5 9.3 5.5 66 2.8 ESE 6 17 3 9 1026.6 - -
07/10:50pm 11.3 10.1 4.4 62 3.1 CALM 0 6 0 3 1026.7 - -
07/10:40pm 11.3 10.1 4.5 63 3.1 CALM 0 6 0 3 1026.7 - -
07/10:30pm 11.3 9.7 4.6 63 3.0 E 2 7 1 4 1026.7 - -
07/10:20pm 11.3 10.2 4.9 65 2.9 CALM 0 6 0 3 1026.7 - -
07/10:10pm 11.4 10.3 5.0 65 2.9 CALM 0 9 0 5 1026.7 - -
07/10:00pm 11.4 9.8 4.6 63 3.1 ESE 2 9 1 5 1026.6 - -
07/09:50pm 11.4 9.9 4.8 64 3.0 E 2 11 1 6 1026.6 - -
07/09:40pm 11.5 9.6 5.1 65 2.9 ESE 4 11 2 6 1026.6 - -
07/09:30pm 11.6 9.3 4.9 63 3.1 SE 6 11 3 6 1026.5 - -
07/09:20pm 11.6 9.5 4.0 59 3.4 ESE 4 13 2 7 1026.5 - -
07/09:10pm 11.6 9.1 3.8 59 3.5 SE 6 13 3 7 1026.5 - -
07/09:00pm 11.6 9.6 4.3 61 3.3 ESE 4 15 2 8 1026.4 - -
07/08:50pm 11.6 9.6 4.5 61 3.2 SE 4 11 2 6 1026.4 - -
07/08:40pm 11.6 9.1 4.0 59 3.4 SE 6 13 3 7 1026.4 - -
07/08:20pm 11.6 9.4 3.5 57 3.6 SE 4 11 2 6 1026.3 - -
07/08:10pm 11.6 9.4 3.6 58 3.5 ESE 4 13 2 7 1026.2 - -
07/08:00pm 11.7 9.2 3.7 58 3.6 ESE 6 13 3 7 1026.2 - -
07/07:50pm 11.7 9.2 3.9 59 3.5 SE 6 11 3 6 1026.1 - -
07/07:40pm 11.7 9.2 3.6 57 3.6 SE 6 11 3 6 1026.1 - -
07/07:30pm 11.7 9.0 3.5 57 3.6 SE 7 13 4 7 1026.0 - -
07/07:20pm 11.7 9.0 3.6 57 3.6 SE 7 13 4 7 1026.0 - -
07/07:10pm 11.7 9.0 3.6 57 3.6 SE 7 13 4 7 1025.9 - -
07/07:00pm 11.7 8.7 4.0 59 3.4 SE 9 15 5 8 1025.8 - -
07/06:50pm 11.8 8.9 4.4 60 3.3 SE 9 15 5 8 1025.8 - -
07/06:40pm 11.8 8.8 3.9 58 3.5 SE 9 17 5 9 1025.7 - -
07/06:30pm 11.9 9.4 3.7 57 3.7 SE 6 13 3 7 1025.7 - -
07/06:20pm 11.8 9.1 3.5 57 3.7 SSE 7 11 4 6 1025.7 - -
07/06:10pm 11.8 9.1 3.6 57 3.6 SSE 7 13 4 7 1025.6 - -
07/06:00pm 11.8 9.1 3.8 58 3.6 SE 7 13 4 7 1025.5 - -
07/05:50pm 11.8 8.8 4.0 59 3.5 SE 9 13 5 7 1025.5 - -
07/05:40pm 11.8 8.8 4.3 60 3.4 SE 9 17 5 9 1025.4 - -
07/05:30pm 11.8 8.8 4.2 59 3.4 SE 9 13 5 7 1025.3 - -
07/05:20pm 11.8 8.1 4.5 61 3.3 SE 13 19 7 10 1025.2 - -
07/05:10pm 11.9 8.3 4.8 62 3.2 SE 13 19 7 10 1025.0 - -
07/05:00pm 12.0 8.8 5.0 62 3.2 SE 11 19 6 10 1024.9 - -
07/04:50pm 11.9 8.6 4.7 61 3.3 SE 11 20 6 11 1024.8 - -
07/04:40pm 11.9 8.3 5.0 62 3.2 SE 13 19 7 10 1024.7 - -
07/04:30pm 11.9 8.4 5.4 64 3.0 SE 13 19 7 10 1024.6 - -
07/04:20pm 11.9 8.5 5.7 66 2.9 SE 13 19 7 10 1024.4 - -
07/04:10pm 11.8 8.7 5.5 65 2.9 ESE 11 17 6 9 1024.3 - -
07/04:00pm 11.8 8.2 5.1 63 3.1 ESE 13 19 7 10 1024.2 - -
07/03:50pm 11.8 7.8 5.1 63 3.1 SE 15 19 8 10 1024.1 - -
07/03:40pm 11.7 7.4 5.4 65 2.9 SE 17 24 9 13 1024.1 - -
07/03:30pm 11.8 7.6 5.8 66 2.8 SE 17 22 9 12 1024.0 - -
07/03:20pm 11.9 7.8 6.0 67 2.8 SE 17 24 9 13 1023.9 - -
07/03:10pm 12.0 8.8 5.3 63 3.1 ESE 11 20 6 11 1023.7 - -
07/03:00pm 11.9 8.7 4.9 62 3.2 ESE 11 19 6 10 1023.6 - -
07/02:50pm 11.9 8.2 4.7 61 3.3 ESE 13 19 7 10 1023.6 - -
07/02:40pm 11.8 8.2 5.1 63 3.1 ESE 13 19 7 10 1023.5 - -
07/02:30pm 11.9 8.4 5.5 65 3.0 SE 13 19 7 10 1023.5 - -
07/02:20pm 11.9 8.4 5.3 64 3.0 SE 13 17 7 9 1023.4 - -
07/02:10pm 11.9 8.8 5.6 65 2.9 SE 11 19 6 10 1023.3 - -
07/02:00pm 11.8 8.0 5.8 66 2.8 SE 15 20 8 11 1023.3 - -
07/01:50pm 11.9 7.7 5.6 65 2.9 SE 17 22 9 12 1023.1 - -
07/01:40pm 11.9 8.0 5.4 64 3.0 ESE 15 20 8 11 1023.0 - -
07/01:30pm 11.9 9.2 5.5 65 3.0 ESE 9 17 5 9 1022.9 - -
07/01:20pm 11.8 8.7 5.4 65 3.0 ESE 11 19 6 10 1022.8 - -
07/01:10pm 11.8 9.1 5.6 66 2.9 SE 9 17 5 9 1022.8 - -
07/01:00pm 11.8 9.0 5.2 64 3.0 SE 9 17 5 9 1022.7 - -
07/12:50pm 11.8 9.1 5.5 65 2.9 SE 9 15 5 8 1022.7 - -
07/12:40pm 11.7 8.2 5.4 65 2.9 SE 13 19 7 10 1022.8 - -
07/12:30pm 11.7 7.9 5.7 66 2.8 SE 15 19 8 10 1022.7 - -
07/12:20pm 11.7 8.0 6.1 68 2.6 SE 15 20 8 11 1022.8 - -
07/12:10pm 11.6 7.9 6.2 69 2.5 SE 15 20 8 11 1022.9 - -
07/12:00pm 11.3 9.2 5.7 68 2.6 ESE 6 15 3 8 1022.8 - -
07/11:50am 11.7 7.8 5.5 66 2.9 SE 15 26 8 14 1022.9 - -
07/11:40am 11.7 8.7 5.9 67 2.7 SE 11 17 6 9 1023.0 - -
07/11:30am 11.6 9.0 6.3 70 2.5 ESE 9 22 5 12 1023.0 - -
07/11:20am 11.3 8.7 6.1 70 2.4 ESE 9 15 5 8 1023.0 - -
07/11:10am 11.6 7.8 6.0 68 2.6 SE 15 20 8 11 1023.1 - -
07/11:00am 11.6 8.5 5.4 65 2.9 SE 11 15 6 8 1023.1 - -
07/10:50am 11.6 8.2 5.7 67 2.7 SE 13 20 7 11 1023.1 - -
07/10:40am 11.6 8.2 5.7 67 2.7 SE 13 19 7 10 1023.2 - -
07/10:30am 11.6 7.8 5.7 67 2.7 SE 15 22 8 12 1023.3 - -
07/10:20am 11.6 7.4 5.9 68 2.7 SE 17 20 9 11 1023.3 - -
07/10:10am 11.6 7.4 5.8 67 2.7 SE 17 22 9 12 1023.3 - -
07/10:00am 11.6 7.3 5.4 65 2.9 SE 17 24 9 13 1023.3 - -
07/09:50am 11.5 7.3 5.5 66 2.8 SE 17 20 9 11 1023.3 - -
07/09:40am 11.5 6.9 5.7 67 2.7 SE 19 24 10 13 1023.3 - -
07/09:30am 11.4 6.7 5.9 69 2.6 SE 20 24 11 13 1023.2 - -
07/09:20am 11.4 6.3 6.1 70 2.5 SE 22 28 12 15 1023.2 - -
07/09:10am 11.6 6.2 6.3 70 2.5 SE 24 30 13 16 1023.1 - -
07/09:00am 11.8 6.7 5.9 67 2.8 SE 22 28 12 15 1023.0 - -
07/08:50am 11.7 7.1 5.5 66 2.9 SE 19 26 10 14 1022.9 - -
07/08:40am 11.6 7.0 5.6 66 2.8 SE 19 28 10 15 1022.7 - -
07/08:30am 11.6 6.4 5.6 66 2.8 SE 22 28 12 15 1022.5 - -
07/08:20am 11.6 6.8 4.6 62 3.2 SE 19 26 10 14 1022.5 - -
07/08:10am 11.5 7.1 4.7 63 3.1 SE 17 24 9 13 1022.3 - -
07/08:00am 11.5 6.1 4.5 62 3.2 SSE 22 37 12 20 1022.4 - -
07/07:50am 11.6 6.7 4.9 63 3.1 SE 20 32 11 17 1022.2 - -
07/07:40am 11.7 6.8 4.3 60 3.3 SE 19 32 10 17 1022.2 - -
07/07:30am 11.6 6.8 4.7 62 3.1 SE 19 32 10 17 1022.1 - -
07/07:20am 11.7 7.2 4.4 61 3.3 SE 17 28 9 15 1022.0 - -
07/07:10am 11.6 7.6 4.9 63 3.1 SE 15 28 8 15 1021.9 - -
07/07:00am 11.4 8.2 5.2 65 2.8 ESE 11 17 6 9 1021.7 - -
07/06:50am 11.4 6.7 5.3 66 2.8 SE 19 28 10 15 1021.7 - -
07/06:40am 11.3 6.1 5.6 68 2.6 SE 22 30 12 16 1021.6 - -
07/06:30am 11.5 6.0 5.8 68 2.7 SE 24 33 13 18 1021.5 - -
07/06:20am 11.2 8.6 6.1 71 2.4 SE 9 15 5 8 1021.2 - -
07/06:10am 10.8 9.9 5.9 72 2.3 CALM 0 9 0 5 1021.0 - -
07/06:00am 10.8 8.5 5.7 71 2.4 ESE 7 15 4 8 1020.9 - -
07/05:50am 11.2 7.4 5.6 68 2.6 SE 15 22 8 12 1020.9 - -
07/05:40am 11.4 7.8 5.1 65 2.9 SE 13 19 7 10 1020.6 - -
07/05:30am 11.4 8.6 5.3 66 2.8 ESE 9 22 5 12 1020.4 - -
07/05:20am 11.6 8.0 5.2 65 2.9 SE 13 22 7 12 1020.3 - -
07/05:10am 12.0 8.4 4.8 61 3.3 SSE 13 19 7 10 1020.1 - -
07/04:50am 11.8 7.4 5.0 63 3.1 SE 17 24 9 13 1019.7 - -
07/04:40am 11.8 7.9 5.3 64 3.0 SE 15 24 8 13 1019.6 - -
07/04:30am 11.7 7.4 5.2 64 3.0 SE 17 30 9 16 1019.5 - -
07/04:20am 11.8 7.5 5.4 65 3.0 SE 17 22 9 12 1019.4 - -
07/04:10am 11.9 7.2 5.0 62 3.2 SE 19 28 10 15 1019.3 - -
07/04:00am 12.1 7.7 4.7 60 3.4 SE 17 28 9 15 1019.2 - -
07/03:50am 12.2 7.8 4.5 59 3.5 SE 17 26 9 14 1019.1 - -
07/03:40am 12.2 7.4 4.7 60 3.4 SE 19 24 10 13 1019.0 - -
07/03:30am 12.1 8.1 4.8 61 3.3 SE 15 20 8 11 1019.0 - -
07/03:20am 12.0 7.6 5.0 62 3.2 ESE 17 22 9 12 1018.8 - -
07/03:10am 11.9 8.0 5.2 63 3.1 ESE 15 26 8 14 1018.7 - -
07/03:00am 11.9 7.0 5.3 64 3.0 SE 20 28 11 15 1018.7 - -
07/02:50am 12.0 7.7 5.3 63 3.1 ESE 17 26 9 14 1018.6 - -
07/02:40am 12.1 8.1 4.8 61 3.3 ESE 15 28 8 15 1018.6 - -
07/02:30am 12.0 8.3 4.6 60 3.4 SE 13 24 7 13 1018.6 - -
07/02:20am 12.1 7.7 4.8 61 3.3 SE 17 24 9 13 1018.7 - -
07/02:10am 12.1 7.8 5.1 62 3.2 ESE 17 24 9 13 1018.6 - -
07/02:00am 12.1 7.4 5.1 62 3.2 ESE 19 28 10 15 1018.6 - -
07/01:50am 12.1 7.8 5.2 62 3.2 ESE 17 24 9 13 1018.6 - -
07/01:40am 12.1 7.5 5.5 64 3.1 ESE 19 28 10 15 1018.5 - -
07/01:30am 12.1 7.5 5.6 64 3.0 ESE 19 26 10 14 1018.4 - -
07/01:20am 12.0 7.8 5.5 64 3.0 ESE 17 22 9 12 1018.4 - -
07/01:10am 12.0 7.4 5.6 65 3.0 ESE 19 24 10 13 1018.3 - -
07/01:00am 12.1 7.3 5.6 64 3.0 ESE 20 26 11 14 1018.2 - -
07/12:50am 12.0 6.8 5.6 65 3.0 ESE 22 28 12 15 1018.1 - -
07/12:40am 12.1 6.6 5.9 66 2.9 ESE 24 32 13 17 1018.0 - -
07/12:30am 12.1 6.6 5.8 65 2.9 ESE 24 30 13 16 1017.9 - -
07/12:20am 12.0 6.5 5.8 66 2.9 SE 24 30 13 16 1017.9 - -
07/12:10am 12.0 6.9 5.8 66 2.9 ESE 22 28 12 15 1017.8 - -
07/12:00am 12.1 7.0 6.1 67 2.8 ESE 22 28 12 15 1017.7 - -
 
Date/Time
EST
Temp
°C
App
Temp
°C
Dew
Point
Rel
Hum
%
Delta-T
°C
Wind Press
QNH
hPa
Press
MSL
hPa
Rain
since 9 am
mm
Dir
 
Spd
km/h
Gust
km/h
Spd
kts
Gust
kts
06/11:50pm 12.0 7.4 6.5 69 2.6 ESE 20 26 11 14 1017.7 - -
06/11:40pm 11.8 7.5 6.8 71 2.4 ESE 19 26 10 14 1017.6 - -
06/11:30pm 11.7 6.9 7.3 74 2.1 ESE 22 28 12 15 1017.6 - -
06/11:20pm 11.4 6.4 8.0 79 1.7 ESE 24 30 13 16 1017.7 - -
06/11:10pm 10.9 7.7 8.4 84 1.2 E 15 26 8 14 1017.6 - -
06/11:00pm 10.5 7.2 8.2 86 1.1 ESE 15 22 8 12 1017.7 - -
06/10:50pm 10.5 5.9 8.1 85 1.2 ESE 22 28 12 15 1017.8 - -
06/10:40pm 10.7 6.7 8.4 86 1.1 ESE 19 28 10 15 1017.7 - -
06/10:30pm 10.7 6.6 8.5 86 1.1 ESE 20 30 11 16 1017.7 - -
06/10:20pm 10.8 6.9 8.6 86 1.1 ESE 19 26 10 14 1017.7 - -
06/10:10pm 10.7 7.2 8.8 88 0.9 SE 17 26 9 14 1017.7 - -
06/10:00pm 10.8 7.7 9.0 89 0.9 SE 15 24 8 13 1017.7 - -
06/09:50pm 10.5 7.4 8.9 90 0.8 ESE 15 19 8 10 1017.6 - -
06/09:40pm 10.6 6.6 9.1 90 0.7 ESE 20 30 11 16 1017.6 - -
06/09:30pm 10.5 7.9 9.2 92 0.6 ESE 13 20 7 11 1017.5 - -
06/09:20pm 10.2 7.1 8.9 92 0.6 SE 15 26 8 14 1017.5 - -
06/09:10pm 10.5 7.1 9.3 92 0.6 SE 17 30 9 16 1017.5 - -
06/09:00pm 10.2 8.3 9.2 93 0.5 SE 9 13 5 7 1017.4 - -
06/08:50pm 10.0 7.3 8.9 93 0.5 SE 13 22 7 12 1017.4 - -
06/08:40pm 10.3 6.9 9.2 93 0.5 SE 17 22 9 12 1017.3 - -
06/08:30pm 10.2 6.4 9.2 93 0.5 SE 19 24 10 13 1017.2 - -
06/08:20pm 10.2 5.5 9.1 93 0.5 SE 24 28 13 15 1017.1 - -
06/08:10pm 10.4 6.1 9.2 92 0.6 SSE 22 28 12 15 1017.1 - -
06/08:00pm 10.8 7.0 9.0 89 0.9 SSE 19 24 10 13 1017.0 - -
06/07:50pm 11.1 8.0 8.9 86 1.1 SSW 15 24 8 13 1016.8 - -
06/07:40pm 11.3 6.9 9.1 86 1.1 SW 22 28 12 15 1016.3 - -
06/07:30pm 11.5 7.2 9.2 86 1.2 SW 22 28 12 15 1016.2 - -
06/07:20pm 11.4 7.0 9.1 86 1.1 SW 22 24 12 13 1016.2 - -
06/07:10pm 11.4 7.0 9.0 85 1.2 SW 22 26 12 14 1016.1 - -
06/07:00pm 11.4 7.4 9.0 85 1.2 SW 20 24 11 13 1016.0 - -
06/06:50pm 11.5 7.5 9.0 85 1.2 SW 20 24 11 13 1015.9 - -
06/06:40pm 11.3 7.2 8.8 84 1.2 SW 20 24 11 13 1016.1 - -
06/06:30pm 11.2 7.1 8.8 85 1.2 SSW 20 24 11 13 1016.3 - -
06/06:20pm 11.2 7.1 8.7 84 1.2 SSW 20 24 11 13 1016.3 - -
06/06:10pm 10.9 6.3 8.3 84 1.3 S 22 30 12 16 1016.4 - -
06/06:00pm 11.6 6.5 9.1 85 1.3 SSW 26 32 14 17 1016.2 - -
06/05:50pm 11.6 6.1 9.1 85 1.3 SSW 28 32 15 17 1015.7 - -
06/05:40pm 11.7 6.2 9.2 85 1.3 SSW 28 33 15 18 1015.7 - -
06/05:30pm 11.8 6.0 9.4 85 1.2 SSW 30 35 16 19 1015.7 - -
06/05:20pm 11.7 5.9 9.3 85 1.2 SSW 30 35 16 19 1015.8 - -
06/05:10pm 11.7 5.8 9.1 84 1.3 SW 30 35 16 19 1015.3 - -
06/05:00pm 11.6 5.6 8.8 83 1.4 SW 30 33 16 18 1015.0 - -
06/04:50pm 11.4 6.9 8.4 82 1.5 SW 22 30 12 16 1014.9 - -
06/04:40pm 11.6 6.2 8.2 79 1.7 SW 26 33 14 18 1014.8 - -
06/04:30pm 12.1 6.8 8.4 78 1.8 SW 26 33 14 18 1014.8 - -
06/04:20pm 12.1 7.2 8.3 77 1.9 SSW 24 32 13 17 1014.9 - -
06/04:10pm 12.2 7.6 8.1 76 2.0 SSW 22 28 12 15 1014.9 - -
06/04:00pm 12.2 7.9 8.0 75 2.1 SW 20 32 11 17 1014.4 - -
06/03:50pm 12.3 8.0 7.9 74 2.2 SSW 20 28 11 15 1014.5 - -
06/03:40pm 12.3 7.6 7.8 74 2.2 SSW 22 26 12 14 1014.5 - -
06/03:30pm 12.4 7.7 7.7 73 2.3 SSW 22 32 12 17 1014.4 - -
06/03:20pm 12.6 6.0 7.7 72 2.4 SSW 32 39 17 21 1014.4 - -
06/03:10pm 12.8 7.7 7.8 71 2.5 SW 24 41 13 22 1014.1 - -
06/03:00pm 13.0 9.6 7.8 70 2.6 SW 15 19 8 10 1014.0 - -
06/02:50pm 13.2 10.2 7.7 69 2.7 SW 13 19 7 10 1013.9 - -
06/02:40pm 13.3 9.9 7.7 69 2.8 WSW 15 19 8 10 1013.8 - -
06/02:30pm 13.4 10.0 7.6 68 2.8 WSW 15 19 8 10 1013.7 - -
06/02:20pm 13.4 9.6 7.5 67 2.9 WSW 17 20 9 11 1013.6 - -
06/02:10pm 13.6 9.7 7.3 65 3.1 WSW 17 20 9 11 1013.5 - -
06/02:00pm 13.6 10.1 7.0 64 3.2 WSW 15 20 8 11 1013.5 - -
06/01:50pm 13.7 10.2 7.0 64 3.3 WSW 15 20 8 11 1013.4 - -
06/01:40pm 13.7 9.8 7.1 64 3.2 WSW 17 20 9 11 1013.4 - -
06/01:30pm 13.7 9.4 7.0 64 3.3 WSW 19 22 10 12 1013.4 - -
06/01:20pm 13.7 9.4 7.0 64 3.3 WSW 19 22 10 12 1013.4 - -
06/01:10pm 13.7 9.4 7.0 64 3.3 WSW 19 22 10 12 1013.3 - -
06/01:00pm 13.6 9.3 7.0 64 3.2 WSW 19 22 10 12 1013.4 - -
06/12:50pm 13.6 9.3 7.2 65 3.1 WSW 19 22 10 12 1013.4 - -
06/12:30pm 13.7 8.8 6.8 63 3.3 WSW 22 26 12 14 1013.6 - -
06/12:20pm 13.8 8.5 6.6 62 3.5 WSW 24 26 13 14 1013.5 - -
06/12:10pm 13.7 8.4 6.7 62 3.4 WSW 24 28 13 15 1013.5 - -
06/12:00pm 13.8 8.8 6.6 62 3.5 WSW 22 30 12 16 1013.6 - -
06/11:50am 13.7 8.3 6.4 61 3.5 WSW 24 30 13 16 1013.6 - -
06/11:40am 13.8 8.4 6.4 61 3.6 W 24 30 13 16 1013.7 - -
06/11:30am 13.8 8.4 6.4 61 3.6 W 24 30 13 16 1013.7 - -
06/11:20am 13.9 9.0 6.8 62 3.4 W 22 26 12 14 1013.8 - -
06/11:10am 13.9 9.0 6.7 62 3.5 W 22 26 12 14 1013.9 - -
06/11:00am 13.9 9.4 6.9 62 3.4 W 20 26 11 14 1014.0 - -
06/10:50am 13.9 9.6 7.2 64 3.3 W 19 22 10 12 1014.1 - -
06/10:40am 14.0 9.5 7.1 63 3.4 W 20 24 11 13 1014.1 - -
06/10:30am 14.1 9.9 7.5 64 3.3 W 19 22 10 12 1014.3 - -
06/10:20am 13.9 10.1 7.7 66 3.1 W 17 22 9 12 1014.4 - -
06/10:10am 13.9 10.2 7.8 66 3.0 W 17 20 9 11 1014.5 - -
06/10:00am 13.7 9.9 7.7 67 3.0 W 17 20 9 11 1014.6 - -
06/09:50am 13.8 9.7 7.7 66 3.0 W 19 22 10 12 1014.6 - -
06/09:40am 13.7 10.0 7.8 67 2.9 W 17 20 9 11 1014.6 - -
06/09:30am 13.7 9.6 7.7 67 3.0 W 19 20 10 11 1014.8 - -
06/09:20am 13.5 9.7 7.6 67 2.9 W 17 20 9 11 1014.8 - -
06/09:10am 13.4 9.6 7.6 68 2.8 W 17 19 9 10 1014.8 - -
06/09:00am 13.3 9.9 7.5 68 2.8 W 15 19 8 10 1014.8 - -
06/08:50am 13.2 9.3 7.2 67 2.9 W 17 22 9 12 1014.7 - -
06/08:40am 13.2 9.3 7.0 66 3.0 WSW 17 22 9 12 1014.7 - -
06/08:30am 13.2 8.9 7.0 66 3.0 W 19 22 10 12 1014.7 - -
06/08:20am 13.3 8.8 6.9 65 3.1 W 20 22 11 12 1014.6 - -
06/08:10am 13.3 8.7 6.7 64 3.2 W 20 22 11 12 1014.6 - -
06/08:00am 13.2 8.8 6.6 64 3.2 W 19 22 10 12 1014.6 - -
06/07:50am 13.1 8.4 6.2 63 3.3 W 20 24 11 13 1014.5 - -
06/07:40am 13.1 7.6 6.1 62 3.3 W 24 26 13 14 1014.4 - -
06/07:30am 13.2 7.8 6.3 63 3.3 W 24 30 13 16 1014.4 - -
06/07:20am 13.2 7.4 6.1 62 3.4 W 26 30 14 16 1014.4 - -
06/07:10am 13.2 7.4 6.1 62 3.4 W 26 30 14 16 1014.3 - -
06/07:00am 13.2 7.4 6.2 62 3.3 W 26 30 14 16 1014.3 - -
06/06:50am 13.4 7.6 6.3 62 3.4 W 26 30 14 16 1014.2 - -
06/06:40am 13.3 7.1 6.2 62 3.4 W 28 32 15 17 1014.0 - -
06/06:30am 13.3 7.1 6.3 62 3.3 W 28 33 15 18 1014.0 - -
06/06:20am 13.2 7.4 6.2 62 3.3 W 26 32 14 17 1013.9 - -
06/06:10am 13.2 6.6 6.2 62 3.3 W 30 33 16 18 1013.8 - -
06/06:00am 13.2 7.0 6.2 62 3.3 W 28 35 15 19 1013.9 - -
06/05:50am 13.3 7.2 6.4 63 3.3 W 28 33 15 18 1013.8 - -
06/05:40am 13.3 7.2 6.5 63 3.3 W 28 32 15 17 1013.7 - -
06/05:30am 13.3 7.2 6.5 63 3.3 W 28 32 15 17 1013.7 - -
06/05:20am 13.3 7.6 6.6 64 3.2 W 26 32 14 17 1013.7 - -
06/05:10am 13.4 8.1 6.8 64 3.2 W 24 30 13 16 1013.7 - -
06/05:00am 13.3 8.0 6.7 64 3.2 W 24 28 13 15 1013.8 - -
06/04:50am 13.3 7.6 6.6 64 3.2 W 26 30 14 16 1013.8 - -
06/04:40am 13.3 7.6 6.6 64 3.2 W 26 30 14 16 1013.8 - -
06/04:30am 13.3 7.6 6.6 64 3.2 W 26 30 14 16 1013.9 - -
06/04:20am 13.3 7.9 6.5 63 3.3 W 24 30 13 16 1013.9 - -
06/04:10am 13.2 7.4 6.4 63 3.3 W 26 32 14 17 1013.9 - -
06/04:00am 13.1 6.9 6.2 63 3.3 W 28 32 15 17 1013.9 - -
06/03:50am 13.1 7.0 6.5 64 3.2 W 28 32 15 17 1013.9 - -
06/03:40am 13.1 7.7 6.4 64 3.2 W 24 30 13 16 1014.0 - -
06/03:30am 13.1 6.9 6.1 62 3.3 W 28 32 15 17 1014.0 - -
06/03:20am 13.1 6.9 6.1 62 3.3 W 28 33 15 18 1014.0 - -
06/03:10am 13.1 6.4 5.8 61 3.4 W 30 33 16 18 1014.0 - -
06/03:00am 13.2 6.5 5.8 61 3.5 W 30 33 16 18 1014.0 - -
06/02:50am 13.3 6.7 5.9 61 3.5 W 30 35 16 19 1014.1 - -
06/02:40am 13.4 7.2 6.3 62 3.4 W 28 33 15 18 1014.1 - -
06/02:30am 13.4 7.3 6.4 62 3.4 W 28 32 15 17 1014.2 - -
06/02:20am 13.2 7.0 6.2 62 3.3 W 28 32 15 17 1014.3 - -
06/02:10am 13.3 7.2 6.4 63 3.3 W 28 32 15 17 1014.4 - -
06/02:00am 13.4 7.3 6.4 62 3.4 W 28 32 15 17 1014.5 - -
06/01:50am 13.5 7.8 6.5 62 3.4 W 26 32 14 17 1014.7 - -
06/01:40am 13.5 7.3 6.3 61 3.4 W 28 33 15 18 1014.7 - -
06/01:30am 13.5 7.8 6.5 62 3.4 W 26 32 14 17 1014.8 - -
06/01:20am 13.5 7.8 6.6 63 3.3 W 26 30 14 16 1014.8 - -
06/01:10am 13.6 7.9 6.5 62 3.4 W 26 30 14 16 1014.8 - -
06/01:00am 13.6 7.8 6.4 62 3.5 W 26 30 14 16 1014.9 - -
06/12:50am 13.6 7.9 6.5 62 3.4 W 26 30 14 16 1014.9 - -
06/12:40am 13.6 7.8 6.3 61 3.5 W 26 32 14 17 1014.9 - -
06/12:30am 13.8 8.1 6.5 61 3.5 W 26 30 14 16 1014.9 - -
06/12:20am 13.7 8.3 6.4 61 3.5 W 24 28 13 15 1015.0 - -
06/12:10am 13.7 7.9 6.2 60 3.6 W 26 32 14 17 1015.0 - -
06/12:00am 13.7 7.9 6.3 61 3.5 W 26 28 14 15 1015.1 - -
 
Date/Time
EST
Temp
°C
App
Temp
°C
Dew
Point
Rel
Hum
%
Delta-T
°C
Wind Press
QNH
hPa
Press
MSL
hPa
Rain
since 9 am
mm
Dir
 
Spd
km/h
Gust
km/h
Spd
kts
Gust
kts
05/11:50pm 13.8 8.0 6.1 59 3.7 W 26 30 14 16 1015.2 - -
05/11:40pm 13.9 8.5 6.5 61 3.6 W 24 30 13 16 1015.3 - -
05/11:30pm 13.8 8.4 6.4 61 3.6 W 24 28 13 15 1015.3 - -
05/11:20pm 13.9 7.8 6.4 60 3.6 W 28 32 15 17 1015.4 - -
05/11:10pm 13.9 8.2 6.8 62 3.4 W 26 30 14 16 1015.5 - -
05/11:00pm 13.9 8.2 6.6 61 3.5 W 26 32 14 17 1015.4 - -
05/10:50pm 13.9 7.4 6.5 61 3.6 W 30 33 16 18 1015.5 - -
05/10:40pm 14.2 8.1 6.7 60 3.6 W 28 33 15 18 1015.6 - -
05/10:30pm 14.2 8.9 6.9 61 3.6 W 24 30 13 16 1015.7 - -
05/10:20pm 14.2 8.5 6.7 60 3.6 W 26 32 14 17 1015.6 - -
05/10:10pm 14.3 8.6 6.8 60 3.6 W 26 30 14 16 1015.6 - -
05/10:00pm 14.2 8.1 6.7 60 3.6 W 28 32 15 17 1015.6 - -
05/09:50pm 14.3 8.2 6.8 60 3.6 W 28 32 15 17 1015.6 - -
05/09:30pm 14.4 8.3 6.7 60 3.7 W 28 32 15 17 1015.7 - -
05/09:20pm 14.6 8.9 6.8 59 3.8 W 26 33 14 18 1015.7 - -
05/09:10pm 14.7 9.1 7.0 60 3.8 W 26 32 14 17 1015.7 - -
05/09:00pm 14.7 9.5 7.3 61 3.6 W 24 30 13 16 1015.8 - -
05/08:50pm 14.7 9.0 6.8 59 3.9 W 26 32 14 17 1015.9 - -
05/08:40pm 14.8 8.9 7.4 61 3.7 W 28 32 15 17 1015.9 - -
05/08:30pm 14.9 9.5 7.8 62 3.5 W 26 30 14 16 1016.0 - -
05/08:20pm 14.8 9.3 7.6 62 3.6 W 26 32 14 17 1016.0 - -
05/08:10pm 14.8 8.4 6.9 59 3.9 W 30 35 16 19 1016.0 - -
05/08:00pm 14.8 9.2 7.2 60 3.7 W 26 35 14 19 1016.1 - -
05/07:50pm 14.6 8.2 6.8 59 3.8 W 30 35 16 19 1016.1 - -
05/07:40pm 14.6 7.8 7.0 60 3.7 W 32 37 17 20 1016.1 - -
05/07:30pm 14.6 8.7 7.4 62 3.6 W 28 35 15 19 1016.1 - -
05/07:20pm 14.5 8.1 6.9 60 3.7 W 30 37 16 20 1016.1 - -
05/07:10pm 14.5 8.2 7.3 62 3.5 W 30 37 16 20 1016.2 - -
05/07:00pm 14.5 8.1 7.0 60 3.7 W 30 35 16 19 1016.2 - -
05/06:50pm 14.5 7.5 6.9 60 3.7 W 33 37 18 20 1016.2 - -
05/06:40pm 14.6 7.8 7.1 60 3.7 W 32 37 17 20 1016.2 - -
05/06:30pm 14.6 8.2 7.1 60 3.7 W 30 33 16 18 1016.2 - -
05/06:20pm 14.7 7.9 7.0 60 3.8 W 32 35 17 19 1016.1 - -
05/06:10pm 14.8 8.0 7.1 60 3.8 W 32 35 17 19 1016.2 - -
05/06:00pm 14.8 8.5 7.3 61 3.7 W 30 35 16 19 1016.1 - -
05/05:50pm 15.1 9.2 7.5 60 3.8 W 28 32 15 17 1016.1 - -
05/05:40pm 15.0 8.3 7.3 60 3.8 W 32 37 17 20 1016.1 - -
05/05:30pm 15.0 8.7 7.5 61 3.7 W 30 37 16 20 1016.1 - -
05/05:20pm 15.0 8.8 7.7 61 3.6 W 30 33 16 18 1016.1 - -
05/05:10pm 15.1 9.2 7.7 61 3.7 W 28 33 15 18 1016.1 - -
05/05:00pm 15.1 9.2 7.7 61 3.7 W 28 32 15 17 1016.1 - -
05/04:50pm 15.1 9.7 7.8 61 3.6 W 26 32 14 17 1016.0 - -
05/04:40pm 15.3 9.9 7.8 61 3.7 W 26 32 14 17 1016.0 - -
05/04:30pm 15.5 10.1 8.1 61 3.7 W 26 32 14 17 1015.9 - -
05/04:20pm 15.9 11.8 8.7 62 3.7 W 20 28 11 15 1016.0 - -
05/04:10pm 15.7 11.8 8.5 62 3.7 W 19 24 10 13 1016.0 - -
05/04:00pm 15.7 12.2 8.6 62 3.6 W 17 22 9 12 1016.0 - -
05/03:50pm 15.8 12.7 8.7 62 3.6 W 15 20 8 11 1016.0 - -
05/03:40pm 15.4 11.8 8.3 62 3.6 W 17 20 9 11 1015.9 - -
05/03:30pm 15.1 11.0 7.8 61 3.6 W 19 22 10 12 1015.9 - -
05/03:20pm 15.2 10.9 7.8 61 3.7 W 20 24 11 13 1016.0 - -
05/03:10pm 15.3 11.0 7.9 61 3.7 W 20 26 11 14 1016.0 - -
05/03:00pm 15.3 11.2 7.7 60 3.8 W 19 24 10 13 1016.0 - -
05/02:50pm 15.3 11.2 7.7 60 3.8 W 19 22 10 12 1016.0 - -
05/02:40pm 15.2 11.1 7.7 61 3.7 W 19 24 10 13 1016.0 - -
05/02:30pm 15.3 11.2 7.7 60 3.8 W 19 24 10 13 1016.1 - -
05/02:20pm 15.3 10.9 7.5 59 3.9 W 20 26 11 14 1016.0 - -
05/02:10pm 15.2 10.3 7.1 58 4.0 W 22 30 12 16 1016.0 - -
05/02:00pm 15.1 9.9 7.2 59 3.9 W 24 30 13 16 1016.0 - -
05/01:50pm 15.0 9.8 7.2 59 3.8 W 24 30 13 16 1016.0 - -
05/01:40pm 15.0 9.4 7.3 60 3.8 W 26 30 14 16 1016.1 - -
05/01:30pm 14.9 9.3 7.2 60 3.8 W 26 32 14 17 1016.1 - -
05/01:20pm 14.9 9.3 7.2 60 3.8 W 26 32 14 17 1016.2 - -
05/01:10pm 14.8 9.2 7.1 60 3.8 W 26 32 14 17 1016.3 - -
05/01:00pm 14.7 9.0 6.8 59 3.9 W 26 32 14 17 1016.2 - -
05/12:50pm 14.8 9.2 7.0 59 3.8 W 26 32 14 17 1016.3 - -
05/12:40pm 14.6 8.9 6.7 59 3.8 W 26 32 14 17 1016.3 - -
05/12:30pm 14.6 8.5 6.8 59 3.8 W 28 35 15 19 1016.3 - -
05/12:20pm 14.5 8.4 6.7 59 3.8 W 28 32 15 17 1016.4 - -
05/12:10pm 14.5 8.8 6.9 60 3.7 W 26 32 14 17 1016.5 - -
05/12:00pm 14.6 8.9 6.8 59 3.8 W 26 30 14 16 1016.6 - -
05/11:50am 14.6 9.4 7.1 60 3.7 W 24 28 13 15 1016.8 - -
05/11:40am 14.5 9.2 6.9 60 3.7 W 24 30 13 16 1016.8 - -
05/11:30am 14.6 9.4 7.1 60 3.7 W 24 30 13 16 1016.9 - -
05/11:20am 14.7 9.8 7.0 60 3.8 W 22 28 12 15 1017.0 - -
05/11:10am 14.7 9.4 6.9 59 3.8 W 24 30 13 16 1017.1 - -
05/11:00am 14.7 9.1 7.2 61 3.7 W 26 30 14 16 1017.1 - -
05/10:50am 14.6 9.0 7.0 60 3.7 W 26 33 14 18 1017.3 - -
05/10:40am 14.7 9.1 7.2 61 3.7 W 26 30 14 16 1017.5 - -
05/10:30am 14.6 8.6 6.9 60 3.8 W 28 32 15 17 1017.7 - -
05/10:20am 14.6 9.0 7.2 61 3.6 W 26 32 14 17 1017.8 - -
05/10:10am 14.6 9.0 7.1 60 3.7 W 26 32 14 17 1018.0 - -
05/10:00am 14.8 9.2 7.2 60 3.7 W 26 32 14 17 1018.1 - -
05/09:50am 14.8 9.2 7.2 60 3.7 W 26 32 14 17 1018.1 - -
05/09:30am 14.7 9.5 7.4 61 3.6 W 24 32 13 17 1018.3 - -
05/09:20am 14.6 8.3 7.3 61 3.6 W 30 33 16 18 1018.2 - -
05/09:10am 14.7 9.2 7.6 62 3.5 W 26 33 14 18 1018.4 - -
05/09:00am 14.6 9.5 7.6 63 3.5 W 24 30 13 16 1018.4 - -
05/08:50am 14.4 8.4 7.2 62 3.5 W 28 37 15 20 1018.3 - -
05/08:40am 14.3 7.6 7.3 63 3.4 W 32 37 17 20 1018.3 - -
05/08:30am 14.2 8.3 7.5 64 3.3 W 28 35 15 19 1018.2 - -
05/08:20am 14.0 7.3 7.4 64 3.2 W 32 37 17 20 1018.1 - -
05/08:10am 13.9 7.2 7.3 64 3.2 W 32 37 17 20 1018.1 - -
05/08:00am 14.0 7.7 7.4 64 3.2 W 30 37 16 20 1018.1 - -
05/07:50am 14.0 7.3 7.5 65 3.2 W 32 39 17 21 1017.9 - -
05/07:40am 13.8 7.9 7.5 66 3.1 W 28 35 15 19 1018.0 - -
05/07:30am 13.4 6.7 7.2 66 3.0 W 32 37 17 20 1017.9 - -
05/07:20am 13.4 6.7 7.3 66 3.0 W 32 37 17 20 1017.9 - -
05/07:10am 13.4 7.5 7.5 67 2.9 W 28 33 15 18 1018.0 - -
05/07:00am 13.3 7.4 7.4 67 2.9 W 28 33 15 18 1017.9 - -
05/06:50am 13.2 7.3 7.3 67 2.9 W 28 33 15 18 1017.9 - -
05/06:40am 13.1 6.8 7.2 67 2.9 W 30 35 16 19 1017.9 - -
05/06:30am 13.1 6.4 7.3 68 2.8 W 32 35 17 19 1017.9 - -
05/06:20am 13.1 6.8 7.4 68 2.8 W 30 35 16 19 1017.9 - -
05/06:10am 13.1 6.8 7.4 68 2.8 W 30 37 16 20 1017.9 - -
05/06:00am 13.1 6.4 7.3 68 2.8 W 32 39 17 21 1017.8 - -
05/05:50am 13.1 6.4 7.3 68 2.8 W 32 39 17 21 1017.7 - -
05/05:40am 13.1 6.4 7.4 68 2.8 W 32 37 17 20 1017.7 - -

Other Formats:

Comma delimited format used in spreadsheet applications
http://www.bom.gov.au/fwo/IDV60801/IDV60801.55039.axf

JavaScript Object Notation format (JSON) in row-major order
http://www.bom.gov.au/fwo/IDV60801/IDV60801.55039.json